Time;durP1;ratioP1;P1;durP2;ratioP2;P2;SDS_P1;SDS_P2;PMS_P1;PMS_P2;Temp;Humidity;BMP_temperature;BMP_pressure;BME280_temperature;BME280_humidity;BME280_pressure;Samples;Min_cycle;Max_cycle;Signal;HPM_P1;HPM_P2
2022/04/23 06:51:40;;;;;;;5.22;3.83;;;;;;;10.09;98.49;97691.69;5136699;27;20138;-82
2022/04/23 06:54:09;;;;;;;9.20;5.07;;;;;;;10.38;99.58;97682.09;5128612;27;20093;-82
2022/04/23 06:56:36;;;;;;;6.28;4.25;;;;;;;10.45;94.24;97680.19;5129100;27;20473;-83
2022/04/23 06:59:04;;;;;;;5.68;4.40;;;;;;;10.72;91.40;97719.91;5129767;27;20051;-83
2022/04/23 07:01:31;;;;;;;4.07;3.28;;;;;;;10.58;91.58;97686.56;5129052;27;20122;-83
2022/04/23 07:03:57;;;;;;;5.65;3.90;;;;;;;10.67;90.98;97703.44;5125469;27;20050;-83
2022/04/23 07:06:24;;;;;;;4.80;3.80;;;;;;;10.72;93.15;97704.44;5128968;27;20047;-83
2022/04/23 07:08:52;;;;;;;5.00;3.47;;;;;;;10.81;90.24;97713.16;5129311;27;20043;-83
2022/04/23 07:11:18;;;;;;;4.63;3.65;;;;;;;10.94;89.67;97707.59;5128435;27;20043;-84
2022/04/23 07:13:45;;;;;;;4.38;2.90;;;;;;;10.86;89.38;97716.03;5128356;27;20051;-84
2022/04/23 07:16:13;;;;;;;4.43;3.50;;;;;;;10.86;88.37;97691.56;5128877;27;20124;-84
2022/04/23 07:18:40;;;;;;;3.75;2.97;;;;;;;11.11;88.75;97707.84;5129525;27;20073;-84
2022/04/23 07:21:07;;;;;;;3.95;3.15;;;;;;;11.10;87.59;97694.47;5123124;27;20035;-84
2022/04/23 07:26:19;;;;;;;5.70;3.17;;;;;;;11.56;86.63;97717.66;5128557;27;20055;-84
2022/04/23 07:28:46;;;;;;;4.85;3.60;;;;;;;11.73;84.51;97692.50;5129328;27;20058;-84
2022/04/23 07:31:12;;;;;;;4.22;3.33;;;;;;;11.87;86.00;97702.19;5128832;27;20043;-84
2022/04/23 07:39:06;;;;;;;4.35;3.40;;;;;;;12.02;83.87;97707.28;5128524;27;20050;-84
2022/04/23 07:41:36;;;;;;;4.88;4.05;;;;;;;11.54;82.18;97697.16;5128788;27;20048;-84
2022/04/23 07:44:02;;;;;;;3.60;3.10;;;;;;;11.51;83.70;97684.81;5127796;27;20108;-84
2022/04/23 07:46:30;;;;;;;4.20;3.38;;;;;;;11.71;84.33;97714.53;5126138;27;20160;-84
2022/04/23 07:48:58;;;;;;;5.68;3.63;;;;;;;11.73;84.05;97692.50;5128930;27;20462;-84
2022/04/23 07:51:26;;;;;;;4.40;3.22;;;;;;;11.65;84.04;97694.50;5120251;27;20131;-84
2022/04/23 07:53:53;;;;;;;3.92;3.17;;;;;;;11.71;81.99;97709.09;5126597;27;20164;-84
2022/04/23 07:56:19;;;;;;;5.38;3.80;;;;;;;11.56;84.76;97712.22;5115591;27;20051;-84
2022/04/23 07:58:48;;;;;;;3.58;3.10;;;;;;;11.65;83.49;97705.41;5124071;28;20055;-84
2022/04/23 08:01:17;;;;;;;3.70;2.88;;;;;;;11.75;84.40;97699.41;5116110;27;20505;-84
2022/04/23 08:03:44;;;;;;;3.72;3.08;;;;;;;11.83;82.64;97711.88;5095117;28;20040;-83
2022/04/23 08:06:14;;;;;;;3.67;3.33;;;;;;;11.83;82.56;97696.38;5106474;28;20043;-84
2022/04/23 08:08:42;;;;;;;3.78;3.38;;;;;;;11.92;81.34;97702.31;5104106;28;20062;-83
2022/04/23 08:11:09;;;;;;;3.92;3.38;;;;;;;12.01;80.28;97713.78;5110483;28;20486;-84
2022/04/23 08:13:36;;;;;;;4.40;3.05;;;;;;;11.84;81.95;97719.00;5107928;28;20059;-84
2022/04/23 08:16:05;;;;;;;4.43;3.22;;;;;;;11.77;81.68;97700.03;5107972;28;20526;-84
2022/04/23 08:18:33;;;;;;;4.55;3.13;;;;;;;11.52;83.01;97691.94;5113818;28;20439;-84
2022/04/23 08:20:59;;;;;;;4.22;3.42;;;;;;;11.76;81.97;97709.25;5111696;28;20048;-84
2022/04/23 08:23:33;;;;;;;5.00;3.35;;;;;;;11.88;80.26;97701.16;5107009;28;20059;-84
2022/04/23 08:26:00;;;;;;;5.07;3.75;;;;;;;11.76;80.33;97694.81;5105368;28;20483;-84
2022/04/23 08:31:13;;;;;;;6.10;3.13;;;;;;;12.27;79.36;97706.28;5106091;28;20047;-84
2022/04/23 08:36:24;;;;;;;4.05;3.13;;;;;;;12.41;75.82;97704.22;5107678;28;20406;-84
2022/04/23 08:38:51;;;;;;;3.38;3.08;;;;;;;12.31;78.23;97716.50;5106514;28;20140;-84
2022/04/23 08:41:17;;;;;;;4.60;3.33;;;;;;;12.25;77.61;97698.34;5107242;28;20440;-84
2022/04/23 08:43:45;;;;;;;3.20;2.90;;;;;;;12.30;78.34;97709.41;5109259;28;20150;-84
2022/04/23 08:46:18;;;;;;;3.47;2.60;;;;;;;12.41;77.66;97705.06;5110422;28;20047;-84
2022/04/23 08:48:50;;;;;;;5.38;3.20;;;;;;;12.47;78.44;97711.47;5110679;28;20047;-84
2022/04/23 08:51:20;;;;;;;5.20;3.30;;;;;;;12.58;76.22;97707.94;5106854;28;20514;-84
2022/04/23 08:53:47;;;;;;;4.63;3.15;;;;;;;12.48;77.24;97694.88;5103336;28;20047;-85
2022/04/23 08:56:14;;;;;;;3.70;3.17;;;;;;;12.42;75.20;97704.00;5097769;28;20078;-84
2022/04/23 08:58:41;;;;;;;4.93;3.40;;;;;;;12.38;77.03;97703.63;5108928;28;20047;-84
2022/04/23 09:01:07;;;;;;;7.90;3.28;;;;;;;12.43;75.84;97711.09;5098454;27;20047;-83
2022/04/23 09:03:35;;;;;;;4.90;3.33;;;;;;;12.69;79.00;97709.88;5111274;28;20069;-84
2022/04/23 09:06:02;;;;;;;3.42;2.95;;;;;;;12.79;78.27;97703.00;5098328;28;20047;-84
2022/04/23 09:08:29;;;;;;;6.85;3.38;;;;;;;12.72;75.33;97692.19;5109250;27;20149;-84
2022/04/23 09:10:57;;;;;;;4.63;3.35;;;;;;;12.62;77.35;97720.03;5104508;28;20048;-83
2022/04/23 09:13:28;;;;;;;3.63;3.13;;;;;;;12.57;76.74;97700.84;5107028;28;20048;-85
2022/04/23 09:24:20;;;;;;;4.32;3.42;;;;;;;12.52;79.30;97706.13;5111130;28;20517;-84
2022/04/23 09:27:03;;;;;;;3.80;3.08;;;;;;;12.58;75.03;97699.75;5100299;28;20048;-84
2022/04/23 09:29:30;;;;;;;5.63;3.58;;;;;;;12.49;75.75;97687.53;5104635;28;20517;-85
2022/04/23 09:32:08;;;;;;;3.65;2.88;;;;;;;12.78;73.60;97688.53;5110782;28;20083;-84
2022/04/23 09:34:40;;;;;;;5.85;3.67;;;;;;;12.70;75.92;97688.88;5102687;28;20070;-84
2022/04/23 09:37:10;;;;;;;3.88;2.85;;;;;;;12.93;73.64;97698.97;5097859;28;20399;-85
2022/04/23 09:39:42;;;;;;;7.75;3.00;;;;;;;13.06;76.58;97696.00;5111624;28;20054;-84
2022/04/23 09:42:17;;;;;;;6.00;3.20;;;;;;;13.11;73.67;97689.84;5099969;28;20403;-84
2022/04/23 09:44:44;;;;;;;3.95;2.72;;;;;;;13.00;70.97;97694.25;5103587;28;20051;-84
2022/04/23 09:47:30;;;;;;;6.03;3.53;;;;;;;12.83;73.44;97701.47;5111780;28;20047;-84
2022/04/23 09:49:58;;;;;;;4.80;3.08;;;;;;;12.78;74.40;97685.81;5109494;28;20047;-84
2022/04/23 09:52:28;;;;;;;4.07;2.95;;;;;;;12.89;73.47;97698.63;5109019;28;20577;-85
2022/04/23 09:54:55;;;;;;;6.07;2.92;;;;;;;12.94;74.14;97703.38;5104714;28;20040;-84
2022/04/23 09:57:23;;;;;;;7.43;3.00;;;;;;;12.90;72.63;97691.25;5102444;28;20052;-84
2022/04/23 09:59:52;;;;;;;2.78;2.53;;;;;;;13.13;72.76;97686.88;5098782;28;20048;-84
2022/04/23 10:02:20;;;;;;;5.18;3.75;;;;;;;12.57;70.97;97676.31;5103522;28;20087;-84
2022/04/23 10:04:47;;;;;;;4.43;3.08;;;;;;;12.75;72.66;97705.34;5101546;27;20116;-84
2022/04/23 10:07:18;;;;;;;5.32;3.22;;;;;;;12.75;72.99;97694.44;5100983;28;20127;-83
2022/04/23 10:09:48;;;;;;;3.70;3.00;;;;;;;12.88;72.95;97710.59;5106837;28;20047;-84
2022/04/23 10:12:19;;;;;;;4.47;3.25;;;;;;;12.94;72.52;97684.28;5111247;28;20047;-84
2022/04/23 10:14:51;;;;;;;4.22;3.30;;;;;;;13.04;71.49;97689.16;5100921;28;20360;-84
2022/04/23 10:17:20;;;;;;;3.85;3.15;;;;;;;13.07;69.72;97694.13;5105484;28;20043;-84
2022/04/23 10:19:48;;;;;;;4.45;3.35;;;;;;;12.87;70.44;97691.72;5109163;28;20104;-85
2022/04/23 10:22:21;;;;;;;7.55;3.28;;;;;;;12.85;71.71;97700.16;5109530;27;20139;-85
2022/04/23 10:24:56;;;;;;;5.95;3.20;;;;;;;12.77;72.13;97675.13;5108036;28;20069;-82
2022/04/23 10:27:25;;;;;;;3.97;3.17;;;;;;;12.89;72.30;97700.53;5105469;28;20126;-82
2022/04/23 10:29:55;;;;;;;3.90;3.22;;;;;;;12.80;73.50;97704.69;5108684;28;20055;-82
2022/04/23 10:32:22;;;;;;;7.78;3.63;;;;;;;12.85;73.12;97678.34;5103886;28;20043;-82
2022/04/23 10:34:49;;;;;;;6.78;4.13;;;;;;;12.70;70.84;97691.59;5093408;28;20087;-82
2022/04/23 10:37:22;;;;;;;4.53;3.70;;;;;;;12.66;71.57;97688.53;5112906;28;20058;-82
2022/04/23 10:40:17;;;;;;;5.93;3.97;;;;;;;12.47;72.47;97678.75;5109733;28;20100;-82
2022/04/23 10:43:12;;;;;;;9.40;4.72;;;;;;;12.68;74.59;97704.66;5105610;28;20075;-82
2022/04/23 10:45:40;;;;;;;5.57;3.85;;;;;;;12.89;71.62;97684.97;5109215;28;20108;-82
2022/04/23 10:48:32;;;;;;;7.60;4.15;;;;;;;13.15;71.16;97692.94;5092967;28;20040;-82
2022/04/23 10:51:08;;;;;;;7.53;4.10;;;;;;;13.18;70.63;97682.38;5095576;28;20531;-82
2022/04/23 10:53:54;;;;;;;9.38;4.25;;;;;;;13.13;68.44;97665.06;5100355;28;20058;-83
2022/04/23 10:56:23;;;;;;;7.20;3.75;;;;;;;13.37;69.85;97685.84;5097698;28;20072;-83
2022/04/23 10:58:53;;;;;;;6.27;4.10;;;;;;;13.54;68.61;97687.84;5104788;28;20059;-83
2022/04/23 11:01:21;;;;;;;;;;;;;;;13.71;70.02;97685.19;5109200;28;20380;-83
2022/04/23 11:04:10;;;;;;;5.90;4.07;;;;;;;13.60;67.43;97656.84;5091697;28;20013;-82
2022/04/23 11:12:36;;;;;;;8.75;4.70;;;;;;;13.86;69.25;97671.00;5098858;28;20361;-79
2022/04/23 11:15:12;;;;;;;6.60;3.60;;;;;;;13.84;66.54;97640.38;5108123;28;20069;-81
2022/04/23 11:17:47;;;;;;;5.97;4.18;;;;;;;14.09;67.12;97661.88;5094639;28;20052;-77
2022/04/23 11:20:14;;;;;;;12.50;4.45;;;;;;;14.30;65.98;97674.03;5103534;28;20050;-80
2022/04/23 11:22:40;;;;;;;4.82;3.97;;;;;;;14.11;67.63;97657.84;5097793;28;20071;-80
2022/04/23 11:25:10;;;;;;;6.47;4.43;;;;;;;14.17;64.49;97666.97;5107370;28;20502;-80
2022/04/23 11:27:37;;;;;;;6.63;4.28;;;;;;;13.99;66.43;97640.69;5104815;28;20556;-80
2022/04/23 11:30:05;;;;;;;5.38;3.95;;;;;;;14.21;65.94;97664.56;5090476;28;20059;-80
2022/04/23 11:32:34;;;;;;;5.95;4.07;;;;;;;13.93;66.92;97652.59;5091916;28;20040;-80
2022/04/23 11:35:02;;;;;;;9.45;4.15;;;;;;;13.88;67.14;97636.91;5102149;28;20044;-80
2022/04/23 11:37:29;;;;;;;7.40;3.85;;;;;;;14.10;66.31;97650.72;5108131;28;20055;-80
2022/04/23 11:40:05;;;;;;;5.82;4.38;;;;;;;14.23;66.88;97665.16;5109816;28;20043;-80
2022/04/23 11:42:43;;;;;;;5.90;4.13;;;;;;;14.06;66.31;97673.31;5104095;28;20402;-80
2022/04/23 11:45:11;;;;;;;6.97;4.68;;;;;;;13.93;65.71;97669.78;5102590;28;20044;-80
2022/04/23 11:47:38;;;;;;;6.63;5.10;;;;;;;13.91;68.06;97651.97;5103677;28;20142;-80
2022/04/23 11:50:12;;;;;;;5.70;4.47;;;;;;;14.30;68.22;97674.88;5105897;28;20055;-80
2022/04/23 11:52:39;;;;;;;7.60;4.65;;;;;;;14.24;66.01;97642.22;5110260;28;20048;-80
2022/04/23 11:55:08;;;;;;;6.70;4.30;;;;;;;14.49;65.84;97666.44;5104980;28;20042;-80
2022/04/23 11:57:35;;;;;;;8.80;4.85;;;;;;;14.54;64.03;97652.84;5111731;28;20238;-80
2022/04/23 12:00:05;;;;;;;6.22;4.50;;;;;;;14.40;65.96;97640.59;5103819;28;20055;-80
2022/04/23 12:02:33;;;;;;;7.57;4.82;;;;;;;14.38;65.36;97657.25;5101535;28;20047;-80
2022/04/23 12:05:02;;;;;;;4.93;4.20;;;;;;;14.15;64.46;97634.41;5107831;28;20074;-79
2022/04/23 12:07:33;;;;;;;6.78;5.00;;;;;;;14.12;65.88;97631.34;5102925;28;20051;-80
2022/04/23 12:10:01;;;;;;;8.07;4.97;;;;;;;14.32;65.49;97648.09;5105590;28;20052;-81
2022/04/23 12:12:29;;;;;;;7.13;4.57;;;;;;;14.63;66.35;97625.94;5104150;28;20498;-81
2022/04/23 12:14:58;;;;;;;7.60;4.40;;;;;;;14.94;64.99;97630.00;5108915;28;20052;-81
2022/04/23 12:17:27;;;;;;;8.50;4.72;;;;;;;15.21;62.25;97607.41;5111156;28;20054;-80
2022/04/23 12:19:55;;;;;;;8.23;5.25;;;;;;;15.37;60.36;97605.66;5104921;28;20457;-81
2022/04/23 12:22:29;;;;;;;7.22;5.30;;;;;;;15.05;62.88;97617.28;5092049;28;20052;-80
2022/04/23 12:25:09;;;;;;;6.53;4.90;;;;;;;15.38;62.58;97612.81;5111818;28;20047;-80
2022/04/23 12:27:56;;;;;;;6.95;5.05;;;;;;;15.48;61.42;97610.22;5103551;28;20127;-81
2022/04/23 12:41:37;;;;;;;5.80;4.45;;;;;;;15.19;60.10;97602.19;5094238;28;20059;-81
2022/04/23 12:44:20;;;;;;;6.80;4.85;;;;;;;15.65;61.51;97596.44;5105896;28;20132;-80
2022/04/23 12:46:54;;;;;;;5.47;4.13;;;;;;;15.88;58.97;97580.81;5103412;28;20503;-80
2022/04/23 12:49:23;;;;;;;5.88;4.68;;;;;;;16.18;60.55;97577.56;5098452;28;20783;-81
2022/04/23 12:51:54;;;;;;;8.20;4.70;;;;;;;15.98;59.57;97572.72;5107393;28;20054;-81
2022/04/23 12:54:22;;;;;;;12.43;4.43;;;;;;;15.60;60.75;97581.84;5101994;28;20089;-81
2022/04/23 12:56:49;;;;;;;6.28;5.10;;;;;;;15.84;58.44;97593.41;5102120;28;20400;-81
2022/04/23 12:59:16;;;;;;;7.47;5.60;;;;;;;15.71;57.67;97572.66;5107631;28;20048;-81
2022/04/23 13:01:43;;;;;;;8.65;4.95;;;;;;;15.57;58.43;97564.84;5099730;28;20035;-81
2022/04/23 13:04:11;;;;;;;6.30;4.75;;;;;;;16.05;59.93;97578.81;5107094;28;20062;-81
2022/04/23 13:09:23;;;;;;;6.40;5.00;;;;;;;15.50;59.10;97564.22;5104520;28;20132;-81
2022/04/23 13:11:50;;;;;;;10.05;6.53;;;;;;;15.18;61.12;97548.50;5097596;27;20048;-81
2022/04/23 13:14:16;;;;;;;9.00;6.10;;;;;;;15.13;60.46;97553.91;5106842;28;20074;-81
2022/04/23 13:16:44;;;;;;;9.63;4.90;;;;;;;15.29;59.57;97560.41;5105149;28;20583;-80
2022/04/23 13:19:10;;;;;;;10.60;5.95;;;;;;;15.16;60.05;97561.63;5096577;28;20040;-80
2022/04/23 13:21:38;;;;;;;8.10;6.07;;;;;;;15.21;59.21;97560.84;5105294;27;20058;-80
2022/04/23 13:24:06;;;;;;;12.80;5.70;;;;;;;15.08;61.73;97563.97;5103356;28;20047;-80
2022/04/23 13:26:32;;;;;;;8.85;5.68;;;;;;;15.24;62.17;97563.09;5097977;28;20056;-80
2022/04/23 13:28:59;;;;;;;8.63;5.97;;;;;;;15.19;61.90;97552.06;5103726;28;20145;-80
2022/04/23 13:31:29;;;;;;;7.90;6.25;;;;;;;15.21;59.88;97541.69;5099945;28;20044;-81
2022/04/23 13:33:56;;;;;;;9.70;6.10;;;;;;;15.11;61.21;97533.34;5107594;28;20046;-80
2022/04/23 13:36:22;;;;;;;8.57;5.95;;;;;;;15.24;61.24;97554.88;5100379;28;20060;-81
2022/04/23 13:38:50;;;;;;;9.20;6.22;;;;;;;15.20;60.35;97549.09;5107603;28;20074;-80
2022/04/23 13:41:19;;;;;;;11.45;7.00;;;;;;;15.38;61.68;97552.56;5099464;28;20059;-80
2022/04/23 13:43:47;;;;;;;9.38;5.97;;;;;;;15.48;61.78;97557.34;5104906;28;20130;-81
2022/04/23 13:46:15;;;;;;;10.02;7.10;;;;;;;15.34;59.92;97552.25;5100507;28;20086;-80
2022/04/23 13:48:42;;;;;;;11.48;5.85;;;;;;;15.42;60.46;97548.25;5099040;28;20063;-80
2022/04/23 13:51:08;;;;;;;11.45;6.45;;;;;;;15.16;60.10;97542.47;5093924;28;20109;-80
2022/04/23 13:53:35;;;;;;;12.18;7.00;;;;;;;15.48;59.14;97555.44;5097977;28;20051;-80
2022/04/23 13:56:03;;;;;;;10.80;7.57;;;;;;;15.50;60.64;97536.00;5106058;28;20044;-80
2022/04/23 13:58:30;;;;;;;10.02;7.55;;;;;;;15.54;61.03;97537.97;5107303;28;20124;-80
2022/04/23 14:00:57;;;;;;;10.02;7.25;;;;;;;15.49;59.73;97535.19;5102003;27;20043;-80
2022/04/23 14:11:51;;;;;;;13.40;7.30;;;;;;;15.48;62.32;97543.66;5094712;27;20080;-80
2022/04/23 14:14:18;;;;;;;11.10;7.38;;;;;;;15.54;60.76;97526.22;5100935;28;20039;-81
2022/04/23 14:16:44;;;;;;;11.27;8.05;;;;;;;15.50;61.99;97536.81;5104296;28;20043;-81
2022/04/23 14:19:11;;;;;;;9.68;7.65;;;;;;;15.63;62.35;97521.09;5101991;28;20043;-81
2022/04/23 14:21:38;;;;;;;11.15;7.35;;;;;;;15.74;61.78;97534.63;5103304;28;20048;-80
2022/04/23 14:24:05;;;;;;;12.15;7.25;;;;;;;15.56;62.26;97519.38;5101684;28;20040;-81
2022/04/23 14:26:31;;;;;;;11.50;7.05;;;;;;;15.70;61.58;97483.34;5097097;28;20050;-81
2022/04/23 14:28:59;;;;;;;10.63;6.82;;;;;;;15.57;61.14;97490.09;5099264;28;20054;-80
2022/04/23 14:31:29;;;;;;;9.85;7.32;;;;;;;15.45;61.86;97501.19;5096519;28;20063;-81
2022/04/23 14:33:56;;;;;;;8.77;7.20;;;;;;;15.43;62.61;97497.03;5100932;28;21464;-80
2022/04/23 14:36:22;;;;;;;11.35;7.97;;;;;;;15.39;64.79;97497.56;5096296;28;20047;-80
2022/04/23 14:38:50;;;;;;;11.40;8.07;;;;;;;15.44;68.30;97510.47;5108466;28;20062;-81
2022/04/23 14:41:16;;;;;;;12.82;8.38;;;;;;;15.19;68.50;97478.16;5111319;28;20048;-81
2022/04/23 14:43:43;;;;;;;9.55;7.55;;;;;;;15.37;63.72;97507.94;5096103;28;20044;-80
2022/04/23 14:46:11;;;;;;;10.65;7.80;;;;;;;15.24;63.27;97477.41;5111232;28;20047;-80
2022/04/23 14:48:37;;;;;;;10.90;7.55;;;;;;;15.55;64.61;97495.81;5111392;28;20067;-80
2022/04/23 14:53:49;;;;;;;12.20;7.75;;;;;;;15.97;67.00;97493.50;5110579;28;20193;-81
2022/04/23 14:56:15;;;;;;;11.02;7.65;;;;;;;16.07;62.56;97485.38;5110488;28;20098;-81
2022/04/23 14:58:42;;;;;;;11.30;7.95;;;;;;;16.12;61.54;97488.13;5098568;28;20123;-80
2022/04/23 15:01:08;;;;;;;12.88;8.27;;;;;;;16.23;62.48;97484.41;5102192;28;20067;-81
2022/04/23 15:03:37;;;;;;;11.85;8.40;;;;;;;16.08;62.05;97489.75;5110045;28;20466;-81
2022/04/23 15:06:05;;;;;;;10.85;8.23;;;;;;;16.09;62.90;97489.50;5111379;28;20574;-81
2022/04/23 15:08:31;;;;;;;21.90;8.32;;;;;;;15.67;61.36;97451.84;5108952;28;20048;-81
2022/04/23 15:10:58;;;;;;;10.90;7.53;;;;;;;15.51;63.20;97456.34;5110608;28;20036;-82
2022/04/23 15:13:24;;;;;;;9.73;6.60;;;;;;;15.20;62.79;97460.66;5114156;28;20051;-81
2022/04/23 15:15:51;;;;;;;10.57;7.30;;;;;;;15.19;64.87;97483.63;5106160;28;20133;-81
2022/04/23 15:18:17;;;;;;;11.63;7.25;;;;;;;14.96;65.60;97460.91;5115015;28;20043;-81
2022/04/23 15:20:45;;;;;;;11.60;7.18;;;;;;;15.09;65.54;97484.34;5115763;28;20054;-81
2022/04/23 15:23:13;;;;;;;13.05;6.88;;;;;;;14.82;66.47;97459.66;5113712;28;20042;-81
2022/04/23 15:25:41;;;;;;;10.13;7.55;;;;;;;14.88;65.78;97471.50;5114212;28;20044;-80
2022/04/23 15:28:08;;;;;;;11.85;7.78;;;;;;;14.99;66.15;97479.56;5115233;28;20047;-81
2022/04/23 15:30:34;;;;;;;9.27;6.85;;;;;;;15.02;65.12;97451.72;5114979;27;20122;-81
2022/04/23 15:33:01;;;;;;;10.57;6.90;;;;;;;14.94;65.21;97454.88;5113351;28;20040;-81
2022/04/23 15:35:28;;;;;;;10.18;7.60;;;;;;;14.66;66.76;97442.22;5110315;28;20051;-81
2022/04/23 15:37:56;;;;;;;13.02;7.80;;;;;;;14.85;66.72;97446.28;5117624;28;21470;-81
2022/04/23 15:40:27;;;;;;;10.48;6.78;;;;;;;15.09;66.05;97426.06;5110030;28;20514;-81
2022/04/23 15:42:54;;;;;;;7.68;6.35;;;;;;;15.37;65.07;97444.13;5103811;28;20052;-81
2022/04/23 15:45:24;;;;;;;11.65;8.00;;;;;;;15.48;66.00;97459.59;5097685;28;20051;-82
